Time;durP1;ratioP1;P1;durP2;ratioP2;P2;SDS_P1;SDS_P2;PMS_P1;PMS_P2;Temp;Humidity;BMP_temperature;BMP_pressure;BME280_temperature;BME280_humidity;BME280_pressure;Samples;Min_cycle;Max_cycle;Signal;HPM_P1;HPM_P2
2022/09/26 00:01:13;;;;;;;;;;;;;;;8.80;100.00;96917.97;5064940;28;19951;-65
2022/09/26 00:03:44;;;;;;;;;;;;;;;8.90;100.00;96917.28;5065237;28;19927;-65
2022/09/26 00:06:11;;;;;;;;;;;;;;;8.90;100.00;96911.06;5064766;28;19927;-65
2022/09/26 00:08:38;;;;;;;;;;;;;;;8.92;100.00;96917.84;5065374;28;20468;-66
2022/09/26 00:11:06;;;;;;;;;;;;;;;8.97;100.00;96917.91;5064834;28;19920;-65
2022/09/26 00:13:33;;;;;;;;;;;;;;;8.67;100.00;96913.75;5077851;28;20007;-66
2022/09/26 00:16:00;;;;;;;;;;;;;;;8.52;100.00;96908.16;5065599;28;20011;-66
2022/09/26 00:18:26;;;;;;;;;;;;;;;8.41;100.00;96901.81;5066096;28;20217;-65
2022/09/26 00:20:53;;;;;;;;;;;;;;;8.44;100.00;96901.31;5068362;28;20427;-65
2022/09/26 00:23:19;;;;;;;;;;;;;;;8.41;100.00;96899.13;5068174;28;20015;-66
2022/09/26 00:25:50;;;;;;;;;;;;;;;8.28;100.00;96892.19;5068774;28;20367;-65
2022/09/26 00:28:17;;;;;;;9.80;6.97;;;;;;;8.27;100.00;96901.34;5068101;28;20330;-65
2022/09/26 00:30:44;;;;;;;13.95;7.65;;;;;;;8.21;100.00;96897.75;5066046;28;20047;-65
2022/09/26 00:33:11;;;;;;;14.57;7.30;;;;;;;8.06;100.00;96904.56;5068227;28;20048;-65
2022/09/26 00:35:37;;;;;;;10.75;7.38;;;;;;;8.04;100.00;96905.88;5068139;28;20131;-66
2022/09/26 00:38:04;;;;;;;16.17;8.15;;;;;;;7.97;100.00;96905.22;5067375;28;20127;-66
2022/09/26 00:40:31;;;;;;;18.25;8.75;;;;;;;8.00;100.00;96908.25;5066815;28;20178;-65
2022/09/26 00:42:58;;;;;;;21.42;8.30;;;;;;;7.94;100.00;96906.53;5079789;28;20054;-65
2022/09/26 00:45:29;;;;;;;13.00;7.78;;;;;;;7.94;100.00;96893.91;5068176;28;20044;-66
2022/09/26 00:48:05;;;;;;;13.02;7.45;;;;;;;7.99;100.00;96892.34;5068072;28;20041;-65
2022/09/26 00:50:39;;;;;;;14.32;7.65;;;;;;;7.87;100.00;96887.03;5093514;28;20147;-65
2022/09/26 00:53:13;;;;;;;10.73;7.00;;;;;;;7.90;100.00;96883.84;5072336;28;20050;-65
2022/09/26 00:55:52;;;;;;;13.30;7.40;;;;;;;7.94;100.00;96893.91;5067624;28;20487;-65
2022/09/26 00:58:45;;;;;;;13.13;8.57;;;;;;;7.90;100.00;96886.53;5067019;28;20041;-66
2022/09/26 01:01:12;;;;;;;14.05;7.47;;;;;;;7.84;100.00;96879.41;5066080;28;20056;-66
2022/09/26 01:03:42;;;;;;;11.05;6.68;;;;;;;7.87;100.00;96873.53;5065971;28;20090;-65
2022/09/26 01:06:09;;;;;;;13.30;7.82;;;;;;;7.85;100.00;96881.88;5066263;28;20044;-66
2022/09/26 01:08:42;;;;;;;12.15;7.65;;;;;;;7.80;100.00;96871.03;5065447;28;20051;-66
2022/09/26 01:11:10;;;;;;;12.07;6.95;;;;;;;7.87;100.00;96873.53;5067626;28;20079;-64
2022/09/26 01:13:42;;;;;;;11.48;6.47;;;;;;;7.91;100.00;96869.28;5062381;28;20032;-65
2022/09/26 01:16:09;;;;;;;8.07;4.97;;;;;;;8.04;100.00;96865.44;5066071;28;20139;-65
2022/09/26 01:18:36;;;;;;;9.82;5.57;;;;;;;8.09;100.00;96857.41;5068025;28;20134;-65
2022/09/26 01:21:19;;;;;;;10.75;5.20;;;;;;;8.15;100.00;96863.72;5066366;28;20166;-65
2022/09/26 01:24:16;;;;;;;9.00;5.00;;;;;;;8.17;100.00;96864.25;5060643;28;20050;-65
2022/09/26 01:27:10;;;;;;;13.82;6.15;;;;;;;8.24;100.00;96864.91;5067659;28;20135;-66
2022/09/26 01:30:00;;;;;;;9.07;5.35;;;;;;;8.27;100.00;96867.13;5065825;28;20064;-65
2022/09/26 01:32:47;;;;;;;7.95;5.20;;;;;;;8.25;100.00;96869.22;5050418;28;20303;-65
2022/09/26 01:35:30;;;;;;;10.32;6.40;;;;;;;8.20;100.00;96867.28;5065485;28;20040;-65
2022/09/26 01:38:12;;;;;;;11.55;6.63;;;;;;;8.03;100.00;96871.88;5062795;28;20435;-65
2022/09/26 01:40:54;;;;;;;10.13;6.38;;;;;;;7.96;100.00;96871.25;5065386;28;20094;-65
2022/09/26 01:43:25;;;;;;;11.90;6.68;;;;;;;7.99;100.00;96865.38;5082848;28;20126;-65
2022/09/26 01:46:01;;;;;;;10.18;6.53;;;;;;;7.97;100.00;96868.31;5045067;28;20398;-65
2022/09/26 01:48:36;;;;;;;11.57;6.85;;;;;;;7.83;100.00;96872.41;5061742;28;20102;-65
2022/09/26 01:51:18;;;;;;;13.35;7.70;;;;;;;7.86;100.00;96869.22;5064210;28;20075;-65
2022/09/26 01:53:55;;;;;;;11.57;7.18;;;;;;;7.84;100.00;96863.25;5064358;28;20037;-65
2022/09/26 01:56:27;;;;;;;11.75;7.03;;;;;;;7.87;100.00;96870.84;5064187;28;20452;-64
2022/09/26 01:58:58;;;;;;;11.43;7.47;;;;;;;7.92;100.00;96866.34;5064356;28;20094;-65
2022/09/26 02:01:28;;;;;;;11.57;6.03;;;;;;;8.00;100.00;96859.72;5068375;28;20211;-65
2022/09/26 02:04:01;;;;;;;12.55;6.47;;;;;;;7.92;100.00;96862.81;5063665;28;20102;-64
2022/09/26 02:06:47;;;;;;;10.30;6.00;;;;;;;7.91;100.00;96861.19;5066583;28;20521;-65
2022/09/26 02:09:17;;;;;;;13.60;6.65;;;;;;;7.96;100.00;96858.56;5065305;28;20127;-65
2022/09/26 02:11:48;;;;;;;11.38;6.80;;;;;;;7.88;100.00;96859.00;5068651;28;20051;-64
2022/09/26 02:14:26;;;;;;;11.23;5.90;;;;;;;8.01;100.00;96847.88;5067757;28;20047;-65
2022/09/26 02:16:59;;;;;;;9.57;5.75;;;;;;;8.03;100.00;96847.63;5066650;28;20075;-64
2022/09/26 02:19:55;;;;;;;10.40;5.55;;;;;;;7.97;100.00;96851.31;5065337;28;20028;-65
2022/09/26 02:22:26;;;;;;;8.52;5.65;;;;;;;7.91;100.00;96842.34;5063598;28;20455;-65
2022/09/26 02:24:52;;;;;;;10.68;5.47;;;;;;;8.01;100.00;96841.66;5064541;28;20128;-65
2022/09/26 02:27:20;;;;;;;9.43;5.47;;;;;;;8.12;100.00;96846.16;5063898;28;20048;-66
2022/09/26 02:29:47;;;;;;;13.20;6.43;;;;;;;8.09;100.00;96846.63;5064178;28;20050;-65
2022/09/26 02:32:19;;;;;;;10.10;5.60;;;;;;;8.17;100.00;96834.59;5063882;28;20040;-65
2022/09/26 02:34:47;;;;;;;7.43;4.70;;;;;;;8.15;100.00;96839.44;5065864;28;20097;-65
2022/09/26 02:37:17;;;;;;;8.25;5.10;;;;;;;8.15;100.00;96840.22;5064334;28;20045;-65
2022/09/26 02:39:45;;;;;;;7.28;5.05;;;;;;;8.16;100.00;96843.75;5065224;28;20074;-65
2022/09/26 02:42:35;;;;;;;6.97;5.07;;;;;;;8.07;100.00;96843.34;5101739;27;20086;-65
2022/09/26 02:45:09;;;;;;;9.10;4.97;;;;;;;7.98;100.00;96834.91;5063125;28;20045;-64
2022/09/26 02:48:04;;;;;;;8.63;5.10;;;;;;;7.93;100.00;96827.53;5062498;28;20041;-65
2022/09/26 02:51:02;;;;;;;10.15;4.97;;;;;;;7.87;100.00;96828.53;5062817;28;20036;-65
2022/09/26 02:53:46;;;;;;;8.70;5.45;;;;;;;7.83;100.00;96822.03;5069096;28;20037;-65
2022/09/26 02:56:20;;;;;;;12.77;5.43;;;;;;;7.84;100.00;96818.25;5044473;28;20044;-65
2022/09/26 02:58:58;;;;;;;10.68;5.40;;;;;;;7.80;100.00;96817.13;5057998;28;20492;-65
2022/09/26 03:01:31;;;;;;;9.65;5.13;;;;;;;7.81;100.00;96821.44;5064230;28;20634;-65
2022/09/26 03:04:25;;;;;;;9.40;4.77;;;;;;;7.84;100.00;96812.88;5065003;28;20032;-65
2022/09/26 03:06:58;;;;;;;10.43;5.22;;;;;;;7.83;100.00;96810.41;5065824;28;20325;-66
2022/09/26 03:09:28;;;;;;;9.75;5.47;;;;;;;7.81;100.00;96805.25;5062887;28;20044;-65
2022/09/26 03:11:58;;;;;;;8.40;5.00;;;;;;;7.88;100.00;96802.38;5069257;28;20052;-65
2022/09/26 03:14:28;;;;;;;7.32;4.10;;;;;;;8.00;100.00;96792.31;5066300;28;20043;-65
2022/09/26 03:16:56;;;;;;;7.03;3.92;;;;;;;8.01;100.00;96788.56;5065540;28;20135;-65
2022/09/26 03:19:38;;;;;;;6.18;4.20;;;;;;;7.98;100.00;96782.84;5063964;28;20052;-66
2022/09/26 03:22:05;;;;;;;7.78;3.83;;;;;;;8.05;100.00;96787.00;5062940;28;20052;-64
2022/09/26 03:24:35;;;;;;;8.32;4.82;;;;;;;8.05;100.00;96788.88;5064832;28;20123;-65
2022/09/26 03:27:04;;;;;;;9.10;5.13;;;;;;;8.03;100.00;96783.72;5063919;28;20434;-65
2022/09/26 03:29:33;;;;;;;8.90;4.65;;;;;;;7.95;100.00;96786.84;5058488;28;20071;-65
2022/09/26 03:32:00;;;;;;;8.57;4.88;;;;;;;8.08;100.00;96788.38;5060039;28;20059;-65
2022/09/26 03:34:26;;;;;;;7.18;4.28;;;;;;;8.18;100.00;96788.50;5062984;28;20094;-65
2022/09/26 03:36:54;;;;;;;7.82;4.03;;;;;;;8.26;100.00;96773.75;5063918;28;20047;-65
2022/09/26 03:39:22;;;;;;;6.15;3.67;;;;;;;8.41;100.00;96780.41;5063586;28;20044;-65
2022/09/26 03:41:57;;;;;;;9.88;3.97;;;;;;;8.31;100.00;96775.72;5070440;28;20123;-65
2022/09/26 03:44:28;;;;;;;;;;;;;;;8.31;100.00;96778.41;5070424;28;20056;-65
2022/09/26 03:47:04;;;;;;;7.00;3.45;;;;;;;8.41;100.00;96762.31;5064366;28;20410;-65
2022/09/26 03:49:37;;;;;;;3.72;2.67;;;;;;;8.45;100.00;96768.84;5063438;28;20040;-65
2022/09/26 03:52:06;;;;;;;5.60;2.72;;;;;;;8.44;100.00;96769.13;5063241;28;20690;-65
2022/09/26 03:54:32;;;;;;;7.07;3.22;;;;;;;8.43;100.00;96762.06;5067039;28;20503;-65
2022/09/26 03:56:59;;;;;;;5.22;3.28;;;;;;;8.51;100.00;96752.72;5067772;28;20052;-65
2022/09/26 03:59:25;;;;;;;7.15;3.08;;;;;;;8.32;100.00;96751.19;5066232;28;20047;-65
2022/09/26 04:01:52;;;;;;;8.70;3.78;;;;;;;8.15;100.00;96739.66;5067342;28;20114;-65
2022/09/26 04:04:18;;;;;;;7.30;3.53;;;;;;;7.93;100.00;96743.97;5068613;28;20523;-65
2022/09/26 04:06:45;;;;;;;6.82;3.47;;;;;;;7.86;100.00;96737.97;5067178;28;20183;-65
2022/09/26 04:09:13;;;;;;;11.50;3.80;;;;;;;7.71;100.00;96737.75;5067503;28;20068;-65
2022/09/26 04:11:46;;;;;;;7.10;3.80;;;;;;;7.61;100.00;96727.66;5068545;28;20118;-66
2022/09/26 04:14:12;;;;;;;6.63;3.78;;;;;;;7.44;100.00;96730.41;5065260;28;20703;-65
2022/09/26 04:16:40;;;;;;;7.60;4.38;;;;;;;7.23;100.00;96720.13;5066941;28;20055;-65
2022/09/26 04:19:14;;;;;;;9.88;4.00;;;;;;;7.24;100.00;96718.25;5065801;28;20041;-68
2022/09/26 04:21:41;;;;;;;6.07;4.00;;;;;;;7.33;100.00;96716.75;5067635;28;20071;-66
2022/09/26 04:24:13;;;;;;;8.40;3.88;;;;;;;7.47;100.00;96719.94;5066077;28;20045;-66
2022/09/26 04:26:41;;;;;;;5.30;3.33;;;;;;;7.54;100.00;96717.06;5067199;28;20043;-66
2022/09/26 04:29:08;;;;;;;5.72;3.97;;;;;;;7.31;100.00;96716.22;5067337;28;20151;-66
2022/09/26 04:31:50;;;;;;;6.78;4.15;;;;;;;7.01;100.00;96710.09;5065967;28;20056;-66
2022/09/26 04:34:23;;;;;;;9.75;4.22;;;;;;;6.72;100.00;96707.50;5067183;28;20052;-66
2022/09/26 04:36:53;;;;;;;6.53;3.58;;;;;;;6.45;100.00;96712.69;5067235;28;20471;-66
2022/09/26 04:39:20;;;;;;;10.70;4.40;;;;;;;6.47;100.00;96718.63;5067050;28;20053;-66
2022/09/26 04:41:46;;;;;;;8.55;5.65;;;;;;;6.62;100.00;96723.47;5068497;28;20040;-62
2022/09/26 04:44:14;;;;;;;11.23;5.60;;;;;;;6.55;100.00;96720.09;5064650;28;20144;-63
2022/09/26 04:46:40;;;;;;;9.27;5.05;;;;;;;6.43;100.00;96712.09;5065714;28;20052;-63
2022/09/26 04:49:07;;;;;;;8.48;4.65;;;;;;;6.29;100.00;96715.06;5068843;28;20072;-67
2022/09/26 04:51:35;;;;;;;7.55;4.35;;;;;;;6.22;100.00;96717.91;5066086;28;20482;-67
2022/09/26 04:54:03;;;;;;;9.05;4.78;;;;;;;6.18;100.00;96711.38;5065591;28;20665;-66
2022/09/26 04:56:35;;;;;;;10.18;4.68;;;;;;;6.25;100.00;96700.47;5064473;28;20051;-66
2022/09/26 04:59:04;;;;;;;10.23;4.80;;;;;;;6.28;100.00;96699.19;5066561;28;20047;-67
2022/09/26 05:01:40;;;;;;;7.85;4.80;;;;;;;6.21;100.00;96704.72;5066157;28;20041;-67
2022/09/26 05:04:12;;;;;;;;;;;;;;;6.06;100.00;96705.22;5067260;28;20138;-67
2022/09/26 05:06:38;;;;;;;8.13;4.50;;;;;;;6.03;100.00;96706.53;5065882;28;19966;-68
2022/09/26 05:09:09;;;;;;;11.23;5.10;;;;;;;5.90;100.00;96704.88;5066676;28;20447;-67
2022/09/26 05:11:48;;;;;;;8.98;5.15;;;;;;;5.90;100.00;96698.72;5068413;28;20044;-67
2022/09/26 05:14:15;;;;;;;9.00;4.85;;;;;;;5.86;100.00;96701.88;5085174;28;20048;-67
2022/09/26 05:16:43;;;;;;;12.35;5.28;;;;;;;5.98;100.00;96701.84;5076057;28;20106;-66
2022/09/26 05:19:13;;;;;;;8.68;5.93;;;;;;;5.93;100.00;96700.94;5064001;28;20055;-67
2022/09/26 05:21:53;;;;;;;14.32;6.00;;;;;;;5.96;100.00;96698.59;5063501;28;20054;-67
2022/09/26 05:27:06;;;;;;;9.13;5.55;;;;;;;6.16;100.00;96685.81;5062104;28;20075;-67
2022/09/26 05:29:33;;;;;;;10.15;5.40;;;;;;;6.23;100.00;96691.84;5073950;28;20040;-67
2022/09/26 05:32:03;;;;;;;8.95;5.22;;;;;;;6.25;100.00;96687.03;5062789;28;20148;-67
2022/09/26 05:34:34;;;;;;;8.73;4.93;;;;;;;6.38;100.00;96681.38;5062094;28;20308;-66
2022/09/26 05:37:01;;;;;;;9.18;4.82;;;;;;;6.47;100.00;96679.09;5063489;28;20049;-67
2022/09/26 05:42:14;;;;;;;8.50;5.20;;;;;;;6.32;100.00;96668.06;5066766;28;20047;-67
2022/09/26 05:44:41;;;;;;;9.20;5.30;;;;;;;6.45;100.00;96672.34;5063530;28;20418;-67
2022/09/26 05:47:08;;;;;;;8.13;5.03;;;;;;;6.59;100.00;96667.44;5063049;28;20156;-66
2022/09/26 05:49:35;;;;;;;9.45;5.78;;;;;;;6.59;100.00;96673.66;5063674;28;20296;-66
2022/09/26 05:52:02;;;;;;;8.05;5.20;;;;;;;6.60;100.00;96671.78;5063166;28;20040;-66
2022/09/26 05:54:29;;;;;;;8.40;5.00;;;;;;;6.67;100.00;96668.94;5065032;28;20523;-64
2022/09/26 05:56:57;;;;;;;7.55;4.88;;;;;;;6.66;100.00;96670.81;5062529;28;20044;-67
2022/09/26 05:59:36;;;;;;;11.85;5.30;;;;;;;6.63;100.00;96668.59;5061985;28;20044;-67
2022/09/26 06:02:28;;;;;;;11.38;4.55;;;;;;;6.59;100.00;96665.59;5045128;28;20171;-65
2022/09/26 06:05:23;;;;;;;10.20;5.53;;;;;;;6.57;100.00;96658.81;5060773;28;20073;-65
2022/09/26 06:08:10;;;;;;;8.40;6.10;;;;;;;6.67;100.00;96666.25;5059216;28;20422;-65
2022/09/26 06:10:40;;;;;;;9.40;5.53;;;;;;;6.92;100.00;96665.81;5065706;28;20044;-65
2022/09/26 06:13:07;;;;;;;8.15;4.45;;;;;;;7.08;100.00;96664.16;5067238;28;20068;-65
2022/09/26 06:15:42;;;;;;;8.95;5.32;;;;;;;7.27;100.00;96667.41;5061847;28;20096;-65
2022/09/26 06:18:08;;;;;;;9.40;4.18;;;;;;;7.44;100.00;96668.44;5062900;28;20441;-66
2022/09/26 06:20:36;;;;;;;7.88;4.20;;;;;;;7.60;100.00;96662.19;5061934;28;20310;-66
2022/09/26 06:23:03;;;;;;;6.30;3.72;;;;;;;7.71;100.00;96660.44;5064027;28;20777;-65
2022/09/26 06:25:30;;;;;;;6.60;4.20;;;;;;;7.86;100.00;96658.97;5056557;28;20150;-65
2022/09/26 06:27:59;;;;;;;6.53;3.83;;;;;;;7.85;100.00;96660.84;5062977;28;20063;-66
2022/09/26 06:30:28;;;;;;;6.03;3.65;;;;;;;7.96;100.00;96663.69;5062180;28;20056;-65
2022/09/26 06:33:02;;;;;;;6.20;3.83;;;;;;;7.81;100.00;96662.41;5063112;28;20464;-65
2022/09/26 06:35:38;;;;;;;8.55;4.47;;;;;;;7.77;100.00;96662.13;5062649;28;20106;-66
2022/09/26 06:38:16;;;;;;;11.48;5.03;;;;;;;7.77;100.00;96658.59;5064289;28;20071;-65
2022/09/26 06:40:43;;;;;;;7.40;3.95;;;;;;;7.82;100.00;96661.38;5062223;28;20052;-65
2022/09/26 06:43:10;;;;;;;6.40;4.03;;;;;;;7.85;100.00;96654.66;5073340;28;20637;-66
2022/09/26 06:45:59;;;;;;;9.23;4.22;;;;;;;7.99;100.00;96649.72;5064394;28;20094;-66
2022/09/26 06:48:36;;;;;;;10.43;4.40;;;;;;;8.00;100.00;96646.72;5063131;28;20136;-66
2022/09/26 06:51:17;;;;;;;5.32;3.60;;;;;;;8.13;100.00;96645.53;5061725;28;20043;-66
2022/09/26 06:53:44;;;;;;;8.43;4.03;;;;;;;8.24;100.00;96643.75;5065866;28;20056;-66
2022/09/26 06:56:15;;;;;;;9.10;4.35;;;;;;;8.32;100.00;96642.47;5063077;28;20139;-66
2022/09/26 06:58:41;;;;;;;8.05;3.83;;;;;;;8.40;100.00;96633.13;5063953;28;20570;-65
2022/09/26 07:01:08;;;;;;;7.82;3.90;;;;;;;8.52;100.00;96638.34;5062386;28;20432;-66
2022/09/26 07:03:38;;;;;;;7.53;3.95;;;;;;;8.55;100.00;96630.56;5064192;28;20059;-66
2022/09/26 07:06:33;;;;;;;7.38;4.10;;;;;;;8.65;100.00;96629.00;5062906;28;20338;-66
2022/09/26 07:09:00;;;;;;;5.63;3.40;;;;;;;8.78;100.00;96634.00;5076295;28;20056;-66
2022/09/26 07:11:46;;;;;;;7.38;3.13;;;;;;;8.83;100.00;96628.63;5066424;28;20066;-66
2022/09/26 07:14:33;;;;;;;10.68;3.97;;;;;;;8.89;100.00;96623.25;5063796;28;20439;-66
2022/09/26 07:17:08;;;;;;;5.68;3.50;;;;;;;8.93;100.00;96621.66;5062299;28;20128;-66
2022/09/26 07:19:55;;;;;;;7.35;3.00;;;;;;;9.11;100.00;96625.84;5052958;28;20053;-66
2022/09/26 07:22:42;;;;;;;9.65;3.08;;;;;;;9.27;99.21;96612.41;5062881;28;20143;-66
2022/09/26 07:25:10;;;;;;;8.98;2.90;;;;;;;9.37;98.81;96607.06;5062333;28;20048;-65
2022/09/26 07:27:38;;;;;;;7.43;3.08;;;;;;;9.43;99.58;96610.63;5064305;28;20462;-66
2022/09/26 07:30:07;;;;;;;8.30;3.10;;;;;;;9.41;98.72;96608.16;5067038;28;20052;-65
2022/09/26 07:32:45;;;;;;;5.78;3.03;;;;;;;9.46;99.05;96612.78;5062186;28;20047;-66
2022/09/26 07:35:35;;;;;;;8.15;3.08;;;;;;;9.42;98.80;96608.97;5086872;28;20048;-64
2022/09/26 07:38:03;;;;;;;6.68;2.60;;;;;;;9.48;98.21;96608.72;5075486;28;20040;-65
2022/09/26 07:40:30;;;;;;;6.07;3.00;;;;;;;9.57;98.74;96609.03;5063802;28;20080;-65
2022/09/26 07:43:00;;;;;;;8.88;2.97;;;;;;;9.61;98.75;96612.84;5069569;28;20052;-65
2022/09/26 07:51:39;;;;;;;5.72;2.50;;;;;;;9.81;96.68;96607.78;5066460;28;20055;-66
2022/09/26 07:54:10;;;;;;;5.60;2.70;;;;;;;9.86;98.07;96607.78;5069576;28;20135;-66
2022/09/26 07:57:09;;;;;;;6.53;2.90;;;;;;;9.87;96.44;96596.69;5042015;28;20105;-65
2022/09/26 07:59:41;;;;;;;7.38;2.40;;;;;;;9.98;96.18;96586.72;5066150;28;20066;-65
2022/09/26 08:02:23;;;;;;;4.28;2.45;;;;;;;10.08;95.92;96595.94;5074354;28;20054;-65
2022/09/26 08:04:53;;;;;;;4.93;2.80;;;;;;;10.17;95.39;96593.53;5068750;28;20041;-65
2022/09/26 08:07:26;;;;;;;5.82;2.72;;;;;;;10.20;95.87;96588.38;5065969;28;20052;-65
2022/09/26 08:10:04;;;;;;;5.75;2.50;;;;;;;10.28;92.62;96593.25;5065308;28;20078;-65
2022/09/26 08:12:49;;;;;;;5.40;2.40;;;;;;;10.36;93.84;96593.81;5077058;28;20401;-65
2022/09/26 08:15:27;;;;;;;6.57;3.03;;;;;;;10.41;94.56;96586.50;5063216;28;20131;-65
2022/09/26 08:18:03;;;;;;;3.70;2.20;;;;;;;10.35;92.72;96584.03;5066990;28;20500;-65
2022/09/26 08:20:29;;;;;;;5.13;2.50;;;;;;;10.32;93.58;96579.19;5065025;28;20048;-65
2022/09/26 08:22:59;;;;;;;6.05;2.42;;;;;;;10.23;93.82;96579.72;5071511;28;20051;-65
2022/09/26 08:25:26;;;;;;;5.75;2.40;;;;;;;10.21;94.25;96572.97;5072234;28;20094;-65
2022/09/26 08:28:12;;;;;;;6.50;2.80;;;;;;;10.25;95.20;96571.34;5065912;28;20143;-65
2022/09/26 08:30:39;;;;;;;6.47;2.58;;;;;;;10.30;94.04;96563.22;5065205;28;20467;-66
2022/09/26 08:33:10;;;;;;;10.23;3.92;;;;;;;10.45;94.78;96567.03;5064698;28;20043;-65
2022/09/26 08:35:37;;;;;;;6.63;2.95;;;;;;;10.67;91.97;96561.34;5078270;28;20071;-65
2022/09/26 08:38:30;;;;;;;6.15;2.67;;;;;;;10.83;88.24;96572.16;5049387;28;20213;-65
2022/09/26 08:41:20;;;;;;;5.05;2.25;;;;;;;11.02;87.80;96562.34;5078946;28;20059;-65
2022/09/26 08:44:10;;;;;;;5.45;2.53;;;;;;;11.16;89.16;96559.06;5064459;28;20049;-64
2022/09/26 08:47:17;;;;;;;5.95;2.20;;;;;;;11.18;86.57;96560.41;5066349;28;20231;-64
2022/09/26 08:50:46;;;;;;;6.40;1.90;;;;;;;11.33;83.47;96553.34;5041324;28;20153;-64
2022/09/26 08:53:25;;;;;;;3.85;2.00;;;;;;;11.45;84.78;96553.81;5071334;28;20054;-63
2022/09/26 08:55:55;;;;;;;7.03;2.58;;;;;;;11.57;85.62;96553.50;5074852;28;20049;-64
2022/09/26 08:58:50;;;;;;;4.30;1.83;;;;;;;11.67;83.79;96546.38;5064197;28;20608;-64
2022/09/26 09:01:26;;;;;;;4.07;1.70;;;;;;;11.74;82.23;96546.91;5062087;28;20483;-64
2022/09/26 09:04:37;;;;;;;5.22;1.80;;;;;;;11.84;81.19;96544.13;5066604;28;20059;-64
2022/09/26 09:07:15;;;;;;;4.13;1.60;;;;;;;11.95;80.89;96544.06;5064869;28;20075;-64
2022/09/26 09:09:41;;;;;;;3.50;1.60;;;;;;;12.08;78.09;96540.75;5067951;28;20066;-64
2022/09/26 09:12:41;;;;;;;3.83;1.50;;;;;;;12.11;76.05;96525.81;5083034;28;20071;-64
2022/09/26 09:15:41;;;;;;;4.90;1.50;;;;;;;12.28;79.74;96533.56;5051990;28;20064;-65
2022/09/26 09:18:29;;;;;;;3.42;1.73;;;;;;;12.37;73.19;96536.47;5064723;28;20538;-65
2022/09/26 09:21:30;;;;;;;3.35;1.20;;;;;;;12.47;73.85;96538.28;5002611;28;20557;-64
2022/09/26 09:24:31;;;;;;;4.00;1.33;;;;;;;12.63;74.75;96530.00;5050611;28;20594;-66
2022/09/26 09:27:32;;;;;;;2.67;1.00;;;;;;;12.87;71.98;96525.41;5068725;28;20102;-66
2022/09/26 09:30:22;;;;;;;3.58;1.48;;;;;;;13.13;70.74;96530.56;5063941;28;20105;-65
2022/09/26 09:33:15;;;;;;;7.05;1.55;;;;;;;13.10;71.27;96527.63;5065206;28;20529;-64
2022/09/26 09:36:07;;;;;;;3.65;1.20;;;;;;;13.36;71.29;96525.41;5064034;28;20048;-64
2022/09/26 09:39:01;;;;;;;4.75;1.42;;;;;;;13.57;72.75;96529.81;5063699;28;20587;-65
2022/09/26 09:41:49;;;;;;;1.85;0.80;;;;;;;13.60;66.22;96521.84;5067209;28;20068;-64
2022/09/26 09:44:30;;;;;;;5.53;1.50;;;;;;;13.85;69.69;96521.78;5069989;28;20100;-65
2022/09/26 09:46:57;;;;;;;2.78;1.52;;;;;;;13.40;67.92;96523.72;5065135;28;20076;-65
2022/09/26 09:49:25;;;;;;;4.03;1.25;;;;;;;13.25;67.59;96518.47;5067029;28;20051;-65
2022/09/26 09:52:02;;;;;;;4.03;1.95;;;;;;;13.10;68.78;96514.84;5062920;28;20048;-65
2022/09/26 09:54:47;;;;;;;3.95;1.40;;;;;;;13.00;69.44;96514.94;5072986;28;20427;-65
2022/09/26 09:57:39;;;;;;;4.40;1.35;;;;;;;13.11;68.53;96507.47;5051760;28;20051;-65
2022/09/26 10:00:15;;;;;;;3.85;1.40;;;;;;;13.49;69.15;96498.63;5063349;28;20052;-65
2022/09/26 10:03:01;;;;;;;3.13;1.67;;;;;;;13.93;68.76;96490.41;5063413;28;20043;-65
2022/09/26 10:05:50;;;;;;;2.78;1.20;;;;;;;14.14;62.61;96483.53;5063679;28;20071;-66
2022/09/26 10:08:35;;;;;;;3.85;1.38;;;;;;;14.41;63.39;96481.97;5063697;28;20058;-65
2022/09/26 10:11:13;;;;;;;4.07;1.13;;;;;;;14.29;61.27;96466.13;5069835;28;20059;-65
2022/09/26 10:14:02;;;;;;;2.95;1.20;;;;;;;14.30;59.75;96466.94;5056132;28;20067;-65
2022/09/26 10:17:13;;;;;;;;;;;;;;;14.40;61.06;96460.50;5063970;28;20307;-65
2022/09/26 10:19:57;;;;;;;;;;;;;;;14.44;60.61;96464.22;5061301;28;19997;-65
2022/09/26 10:22:28;;;;;;;;;;;;;;;14.33;62.01;96466.34;5074257;28;20545;-66
2022/09/26 10:25:05;;;;;;;;;;;;;;;14.03;62.49;96471.19;5063226;28;20557;-66
2022/09/26 10:27:37;;;;;;;;;;;;;;;14.03;61.27;96466.56;5068615;28;20439;-65
2022/09/26 10:30:17;;;;;;;;;;;;;;;13.95;61.38;96466.41;5063135;28;19924;-65
2022/09/26 10:32:46;;;;;;;;;;;;;;;13.67;61.04;96461.66;5063327;28;20276;-65
2022/09/26 10:35:45;;;;;;;;;;;;;;;13.74;61.48;96459.38;5050874;28;19940;-65
2022/09/26 10:38:23;;;;;;;2.45;0.70;;;;;;;13.81;61.20;96463.66;5047421;28;19930;-65
2022/09/26 10:41:00;;;;;;;2.53;0.95;;;;;;;13.89;61.06;96463.78;5049489;28;20141;-65
2022/09/26 10:43:30;;;;;;;;;;;;;;;14.17;60.63;96458.44;5068857;28;20418;-66
2022/09/26 10:46:13;;;;;;;;;;;;;;;14.50;61.77;96457.59;5063217;28;20038;-65
2022/09/26 10:49:11;;;;;;;;;;;;;;;14.40;58.40;96446.88;5009591;28;20055;-65
2022/09/26 10:52:14;;;;;;;4.53;0.88;;;;;;;14.29;60.46;96451.69;5063091;28;19931;-65
2022/09/26 10:55:03;;;;;;;2.42;0.65;;;;;;;14.19;57.30;96452.66;5061479;28;20054;-65
2022/09/26 10:57:39;;;;;;;;;;;;;;;14.08;57.75;96451.25;5063261;28;20075;-65
2022/09/26 11:00:06;;;;;;;;;;;;;;;14.26;59.52;96444.16;5064221;28;19921;-65
2022/09/26 11:02:34;;;;;;;;;;;;;;;14.49;58.15;96438.84;5062646;28;19924;-65
2022/09/26 11:08:13;;;;;;;1.85;0.50;;;;;;;14.93;58.09;96434.75;5065290;28;20060;-65
2022/09/26 11:11:11;;;;;;;3.35;0.68;;;;;;;15.21;56.55;96433.91;5061818;28;20511;-66
2022/09/26 11:14:02;;;;;;;1.65;0.70;;;;;;;15.23;56.90;96422.69;5072761;28;20052;-65
2022/09/26 11:16:47;;;;;;;4.05;1.02;;;;;;;15.39;54.80;96418.53;5062322;28;20041;-65
2022/09/26 11:19:25;;;;;;;2.95;0.73;;;;;;;15.18;55.11;96405.34;5063028;28;20178;-66
2022/09/26 11:22:14;;;;;;;1.65;0.70;;;;;;;15.07;56.05;96410.19;5061856;28;20037;-66
2022/09/26 11:25:07;;;;;;;1.80;0.70;;;;;;;14.26;57.22;96403.31;5063143;28;20053;-65
2022/09/26 11:27:49;;;;;;;2.50;0.93;;;;;;;14.04;59.53;96396.56;5059886;28;20041;-67
2022/09/26 11:30:22;;;;;;;3.97;1.00;;;;;;;13.96;59.85;96400.00;5062352;28;20422;-65
2022/09/26 11:33:12;;;;;;;1.67;0.85;;;;;;;13.95;60.58;96396.47;5062864;28;20087;-65
2022/09/26 11:36:24;;;;;;;4.38;0.80;;;;;;;13.91;61.34;96390.00;5063362;28;20152;-65
2022/09/26 11:39:11;;;;;;;2.63;1.50;;;;;;;13.85;60.43;96392.00;5061539;28;20155;-65
2022/09/26 11:41:53;;;;;;;2.00;0.70;;;;;;;13.52;61.34;96387.34;5064768;28;20066;-65
2022/09/26 11:44:32;;;;;;;;;;;;;;;13.77;61.64;96385.34;5050032;28;20136;-65
2022/09/26 11:47:35;;;;;;;2.28;0.60;;;;;;;13.55;61.54;96393.28;5082152;28;20413;-65
2022/09/26 11:50:47;;;;;;;3.72;0.93;;;;;;;13.65;63.06;96388.50;5057694;28;20044;-65
2022/09/26 11:53:39;;;;;;;2.38;0.52;;;;;;;13.83;62.88;96369.75;5066574;28;20102;-65
2022/09/26 11:56:05;;;;;;;;;;;;;;;13.95;62.35;96376.59;5064092;28;20147;-65
2022/09/26 11:58:58;;;;;;;2.10;0.70;;;;;;;14.05;61.46;96365.56;5076743;28;19960;-65
2022/09/26 12:01:30;;;;;;;2.60;0.73;;;;;;;14.28;62.44;96363.78;5063177;28;20040;-65
2022/09/26 12:04:26;;;;;;;2.60;0.82;;;;;;;14.11;62.57;96350.72;5063181;28;20076;-65
2022/09/26 12:07:16;;;;;;;1.70;0.80;;;;;;;14.36;62.20;96340.47;5062867;28;20133;-65
2022/09/26 12:09:52;;;;;;;3.67;0.80;;;;;;;14.51;58.97;96330.38;5065562;28;20557;-65
2022/09/26 12:12:50;;;;;;;2.97;0.70;;;;;;;14.65;59.06;96323.03;5073163;28;20044;-65
2022/09/26 12:15:20;;;;;;;2.38;0.55;;;;;;;14.69;56.51;96315.84;5088756;28;20143;-65
2022/09/26 12:18:04;;;;;;;3.42;0.85;;;;;;;14.79;57.73;96320.31;5089848;28;20044;-66
2022/09/26 12:20:39;;;;;;;2.40;0.75;;;;;;;14.82;56.14;96321.63;5089337;28;20044;-65
2022/09/26 12:23:47;;;;;;;1.08;0.70;;;;;;;14.95;57.10;96307.16;5073958;28;20044;-65
2022/09/26 12:26:28;;;;;;;2.88;0.70;;;;;;;14.92;53.99;96313.22;5066596;28;20168;-65
2022/09/26 12:29:04;;;;;;;5.25;0.80;;;;;;;14.82;55.07;96295.16;5066241;28;20048;-66
2022/09/26 12:31:42;;;;;;;2.42;0.55;;;;;;;14.77;57.05;96306.19;5067159;28;20121;-66
2022/09/26 12:34:30;;;;;;;1.50;0.63;;;;;;;14.53;56.37;96293.56;5066728;28;20083;-66
2022/09/26 12:37:17;;;;;;;0.77;0.57;;;;;;;14.41;57.83;96285.91;5080526;28;20502;-65
2022/09/26 12:39:49;;;;;;;2.97;0.85;;;;;;;14.68;56.04;96284.25;5066837;28;20079;-65